Time;durP1;ratioP1;P1;durP2;ratioP2;P2;SDS_P1;SDS_P2;PMS_P1;PMS_P2;Temp;Humidity;BMP_temperature;BMP_pressure;BME280_temperature;BME280_humidity;BME280_pressure;Samples;Min_cycle;Max_cycle;Signal;HPM_P1;HPM_P2
2022/01/18 00:00:15;;;;;;;;;;;1.10;99.90;;;;;;5123807;28;19936;-88
2022/01/18 00:02:43;;;;;;;;;;;0.80;99.90;;;;;;5117794;28;19981;-88
2022/01/18 00:05:13;;;;;;;;;;;1.30;99.90;;;;;;5115490;28;19923;-88
2022/01/18 00:07:40;;;;;;;;;;;0.90;99.90;;;;;;5115060;28;19924;-88
2022/01/18 00:10:07;;;;;;;;;;;0.90;99.90;;;;;;5114622;28;19927;-87
2022/01/18 00:12:55;;;;;;;;;;;0.90;99.90;;;;;;5114644;28;19946;-89
2022/01/18 00:15:38;;;;;;;;;;;0.80;99.90;;;;;;5113861;28;19923;-88
2022/01/18 00:18:09;;;;;;;;;;;0.90;99.90;;;;;;5114732;28;20378;-88
2022/01/18 00:20:48;;;;;;;;;;;0.90;99.90;;;;;;5114487;28;19923;-87
2022/01/18 00:23:15;;;;;;;;;;;0.50;99.90;;;;;;5116872;28;19953;-87
2022/01/18 00:25:45;;;;;;;;;;;0.80;99.90;;;;;;5118710;28;19977;-88
2022/01/18 00:28:13;;;;;;;;;;;0.80;99.90;;;;;;5119898;28;19927;-88
2022/01/18 00:31:06;;;;;;;;;;;0.90;99.90;;;;;;5119217;28;19924;-88
2022/01/18 00:33:48;;;;;;;;;;;0.90;99.90;;;;;;5119191;28;19927;-87
2022/01/18 00:36:25;;;;;;;;;;;0.90;99.90;;;;;;5119927;28;19927;-87
2022/01/18 00:38:52;;;;;;;;;;;0.90;99.90;;;;;;5119555;28;19923;-87
2022/01/18 00:41:20;;;;;;;;;;;0.90;99.90;;;;;;5119696;28;19923;-87
2022/01/18 00:43:47;;;;;;;;;;;0.80;99.90;;;;;;5119114;28;20267;-87
2022/01/18 00:46:15;;;;;;;;;;;0.80;99.90;;;;;;5119322;28;19928;-88
2022/01/18 00:48:43;;;;;;;;;;;0.80;99.90;;;;;;5115055;28;20327;-88
2022/01/18 00:51:13;;;;;;;;;;;0.80;99.90;;;;;;5117928;28;19923;-88
2022/01/18 00:53:41;;;;;;;;;;;1.50;99.90;;;;;;5117894;28;20403;-88
2022/01/18 00:56:18;;;;;;;;;;;0.90;99.90;;;;;;5118358;28;19928;-87
2022/01/18 00:58:48;;;;;;;;;;;0.80;99.90;;;;;;5118142;28;19983;-88
2022/01/18 01:01:15;;;;;;;;;;;0.80;99.90;;;;;;5117782;28;19924;-86
2022/01/18 01:03:44;;;;;;;;;;;0.70;99.90;;;;;;5117797;28;19977;-88
2022/01/18 01:06:11;;;;;;;;;;;0.80;99.90;;;;;;5117787;28;19923;-87
2022/01/18 01:08:38;;;;;;;;;;;0.90;99.90;;;;;;5118015;28;20415;-86
2022/01/18 01:11:06;;;;;;;;;;;0.80;99.90;;;;;;5118295;28;19928;-86
2022/01/18 01:13:33;;;;;;;;;;;0.90;99.90;;;;;;5116689;28;19924;-86
2022/01/18 01:16:11;;;;;;;;;;;0.70;99.90;;;;;;5117767;28;19924;-87
2022/01/18 01:18:47;;;;;;;;;;;0.70;99.90;;;;;;5117897;28;20388;-86
2022/01/18 01:32:43;;;;;;;;;;;0.70;99.90;;;;;;5117382;28;20001;-86
2022/01/18 01:35:12;;;;;;;;;;;0.60;99.90;;;;;;5115683;28;19928;-86
2022/01/18 01:43:19;;;;;;;;;;;0.60;99.90;;;;;;5116534;28;19931;-87
2022/01/18 01:45:46;;;;;;;;;;;0.60;99.90;;;;;;5116869;28;19935;-87
2022/01/18 01:48:13;;;;;;;;;;;0.60;99.90;;;;;;5117289;28;19928;-86
2022/01/18 01:50:45;;;;;;;;;;;0.60;99.90;;;;;;5117244;28;19927;-87
2022/01/18 01:53:13;;;;;;;;;;;0.60;99.90;;;;;;5117120;28;19979;-87
2022/01/18 01:55:40;;;;;;;;;;;0.60;99.90;;;;;;5116769;28;19970;-86
2022/01/18 01:58:08;;;;;;;;;;;0.60;99.90;;;;;;5116965;28;20297;-86
2022/01/18 02:00:35;;;;;;;;;;;0.50;99.90;;;;;;5117580;28;19984;-85
2022/01/18 02:03:02;;;;;;;;;;;0.50;99.90;;;;;;5124352;28;19923;-85
2022/01/18 02:05:28;;;;;;;;;;;0.50;99.90;;;;;;5123772;28;19924;-86
2022/01/18 02:07:56;;;;;;;;;;;0.50;99.90;;;;;;5124396;28;19931;-85
2022/01/18 02:10:24;;;;;;;;;;;1.00;99.90;;;;;;5120172;28;19932;-86
2022/01/18 02:12:51;;;;;;;;;;;0.50;99.90;;;;;;5116746;28;20240;-86
2022/01/18 02:15:19;;;;;;;;;;;0.50;99.90;;;;;;5116565;28;20438;-86
2022/01/18 02:23:16;;;;;;;;;;;0.50;99.90;;;;;;5116530;28;20032;-87
2022/01/18 02:25:43;;;;;;;;;;;0.50;99.90;;;;;;5116218;28;19924;-88
2022/01/18 02:28:10;;;;;;;;;;;0.40;99.90;;;;;;5116154;28;20008;-87
2022/01/18 02:30:37;;;;;;;;;;;0.40;99.90;;;;;;5116595;28;19950;-87
2022/01/18 02:33:04;;;;;;;;;;;0.40;99.90;;;;;;5116400;28;19976;-87
2022/01/18 02:35:34;;;;;;;;;;;0.10;99.90;;;;;;5115956;28;19969;-86
2022/01/18 02:38:00;;;;;;;;;;;0.40;99.90;;;;;;5115541;28;19971;-87
2022/01/18 02:40:27;;;;;;;;;;;0.90;99.90;;;;;;5115975;28;20385;-87
2022/01/18 02:42:58;;;;;;;;;;;0.40;99.90;;;;;;5116382;28;20355;-87
2022/01/18 02:45:25;;;;;;;;;;;0.40;99.90;;;;;;5115321;28;19923;-87
2022/01/18 02:47:52;;;;;;;;;;;0.40;99.90;;;;;;5114833;28;19985;-87
2022/01/18 02:50:19;;;;;;;;;;;0.40;99.90;;;;;;5111186;28;20422;-87
2022/01/18 02:52:47;;;;;;;;;;;0.30;99.90;;;;;;5116127;28;20335;-87
2022/01/18 02:55:14;;;;;;;;;;;0.80;99.90;;;;;;5115904;28;19924;-88
2022/01/18 02:57:54;;;;;;;;;;;2.50;99.90;;;;;;5115108;28;19959;-88
2022/01/18 03:00:29;;;;;;;;;;;0.70;99.90;;;;;;5095351;28;19924;-87
2022/01/18 03:03:12;;;;;;;;;;;0.00;99.90;;;;;;5095476;28;19989;-87
2022/01/18 03:05:39;;;;;;;;;;;0.40;99.90;;;;;;5102771;28;19924;-86
2022/01/18 03:08:08;;;;;;;;;;;0.30;99.90;;;;;;5115949;28;19927;-87
2022/01/18 03:10:35;;;;;;;;;;;0.30;99.90;;;;;;5115534;28;19959;-87
2022/01/18 03:13:02;;;;;;;;;;;0.30;99.90;;;;;;5115587;28;19923;-86
2022/01/18 03:15:29;;;;;;;;;;;0.30;99.90;;;;;;5115221;28;19924;-88
2022/01/18 03:17:56;;;;;;;;;;;0.30;99.90;;;;;;5115320;28;19928;-86
2022/01/18 03:20:23;;;;;;;;;;;1.10;99.90;;;;;;5115145;28;20306;-86
2022/01/18 03:22:51;;;;;;;;;;;0.20;99.90;;;;;;5115471;28;19928;-87
2022/01/18 03:25:39;;;;;;;;;;;0.20;99.90;;;;;;5114681;28;19927;-87
2022/01/18 03:28:07;;;;;;;;;;;0.10;99.90;;;;;;5115482;28;20283;-89
2022/01/18 03:30:34;;;;;;;;;;;0.20;99.90;;;;;;5114581;28;19923;-87
2022/01/18 03:33:01;;;;;;;;;;;0.30;99.90;;;;;;5115167;28;19969;-89
2022/01/18 03:35:28;;;;;;;;;;;0.30;99.90;;;;;;5114792;28;19924;-88
2022/01/18 03:37:55;;;;;;;;;;;0.20;99.90;;;;;;5112238;28;19924;-88
2022/01/18 03:40:23;;;;;;;;;;;0.20;99.90;;;;;;5114404;28;19928;-88
2022/01/18 03:42:51;;;;;;;;;;;0.10;99.90;;;;;;5114953;28;20407;-88
2022/01/18 03:45:19;;;;;;;;;;;0.10;99.90;;;;;;5114382;28;19969;-87
2022/01/18 03:47:46;;;;;;;;;;;0.10;99.90;;;;;;5114596;28;19931;-87
2022/01/18 03:50:15;;;;;;;;;;;0.10;99.90;;;;;;5114779;28;19923;-88
2022/01/18 03:52:42;;;;;;;;;;;0.00;99.90;;;;;;5114844;28;19924;-88
2022/01/18 03:55:10;;;;;;;;;;;0.00;99.90;;;;;;5113840;28;19924;-86
2022/01/18 03:57:38;;;;;;;;;;;0.00;99.90;;;;;;5114107;28;19976;-86
2022/01/18 04:00:06;;;;;;;;;;;0.00;99.90;;;;;;5114395;28;19927;-86
2022/01/18 04:02:33;;;;;;;;;;;0.00;99.90;;;;;;5115053;28;19927;-87
2022/01/18 04:05:00;;;;;;;;;;;0.10;99.90;;;;;;5114217;28;19928;-86
2022/01/18 04:07:27;;;;;;;;;;;-0.80;99.90;;;;;;5115348;28;19977;-88
2022/01/18 04:09:54;;;;;;;;;;;0.10;99.90;;;;;;5115405;28;19977;-87
2022/01/18 04:12:21;;;;;;;;;;;0.10;99.90;;;;;;5123344;28;19952;-84
2022/01/18 04:14:49;;;;;;;;;;;-0.30;99.90;;;;;;5124518;28;19928;-86
2022/01/18 04:17:30;;;;;;;;;;;-0.10;99.90;;;;;;5125333;28;19924;-84
2022/01/18 04:28:19;;;;;;;;;;;-0.10;99.90;;;;;;5109120;28;19924;-87
2022/01/18 04:30:47;;;;;;;;;;;0.00;99.90;;;;;;5114632;28;19970;-86
2022/01/18 04:33:14;;;;;;;;;;;0.00;99.90;;;;;;5114852;28;20242;-87
2022/01/18 04:35:40;;;;;;;;;;;0.50;99.90;;;;;;5114958;28;19956;-88
2022/01/18 04:38:07;;;;;;;;;;;-0.10;99.90;;;;;;5115133;28;19952;-88
2022/01/18 04:40:36;;;;;;;;;;;-0.10;99.90;;;;;;5110490;28;19924;-87
2022/01/18 04:43:11;;;;;;;;;;;-0.20;99.90;;;;;;5115017;28;19924;-87
2022/01/18 04:48:29;;;;;;;;;;;-0.20;99.90;;;;;;5112019;28;19930;-87
2022/01/18 04:50:57;;;;;;;;;;;-0.20;99.90;;;;;;5113606;28;19931;-86
2022/01/18 04:53:23;;;;;;;;;;;-0.20;99.90;;;;;;5114616;28;19980;-86
2022/01/18 04:55:54;;;;;;;;;;;0.60;99.90;;;;;;5114350;28;19924;-87
2022/01/18 04:58:22;;;;;;;;;;;0.00;99.90;;;;;;5114001;28;19930;-86
2022/01/18 05:00:50;;;;;;;;;;;-0.40;99.90;;;;;;5111321;28;19931;-87
2022/01/18 05:03:16;;;;;;;;;;;-0.30;99.90;;;;;;5094400;28;20343;-86
2022/01/18 05:05:45;;;;;;;;;;;-0.20;99.90;;;;;;5094039;28;19924;-85
2022/01/18 05:08:13;;;;;;;;;;;-0.50;99.90;;;;;;5113008;28;19930;-87
2022/01/18 05:10:41;;;;;;;;;;;-0.20;99.90;;;;;;5117602;28;19924;-88
2022/01/18 05:13:18;;;;;;;;;;;-0.30;99.90;;;;;;5117592;28;20392;-86
2022/01/18 05:15:50;;;;;;;;;;;-0.30;99.90;;;;;;5118478;28;19923;-86
2022/01/18 05:21:13;;;;;;;;;;;-0.30;99.90;;;;;;5117720;28;19953;-86
2022/01/18 05:23:39;;;;;;;;;;;-0.10;99.90;;;;;;5117867;28;20442;-90
2022/01/18 05:26:06;;;;;;;;;;;-0.10;99.90;;;;;;5117970;28;19924;-86
2022/01/18 05:28:32;;;;;;;;;;;-0.10;99.90;;;;;;5117825;28;19923;-87
2022/01/18 05:30:59;;;;;;;;;;;-0.20;99.90;;;;;;5117879;28;20395;-88
2022/01/18 05:33:26;;;;;;;;;;;-0.20;99.90;;;;;;5117805;28;19974;-87
2022/01/18 05:35:54;;;;;;;;;;;-0.30;99.90;;;;;;5117636;28;19949;-87
2022/01/18 05:38:22;;;;;;;;;;;-0.30;99.90;;;;;;5116998;28;19963;-87
2022/01/18 05:40:49;;;;;;;;;;;-0.60;99.90;;;;;;5117627;28;19924;-87
2022/01/18 05:43:16;;;;;;;;;;;-0.40;99.90;;;;;;5117640;28;19924;-87
2022/01/18 05:45:43;;;;;;;;;;;-0.40;99.90;;;;;;5117584;28;19962;-87
2022/01/18 05:48:10;;;;;;;;;;;-0.60;99.90;;;;;;5117870;28;19924;-87
2022/01/18 05:50:37;;;;;;;;;;;-0.40;99.90;;;;;;5117593;28;19934;-88
2022/01/18 05:53:03;;;;;;;;;;;0.30;99.90;;;;;;5116932;28;20334;-88
2022/01/18 05:55:32;;;;;;;;;;;-0.60;99.90;;;;;;5117328;28;19963;-87
2022/01/18 05:57:59;;;;;;;;;;;-0.40;99.90;;;;;;5117845;28;20121;-87
2022/01/18 06:00:27;;;;;;;;;;;0.00;99.90;;;;;;5117156;28;19923;-88
2022/01/18 06:03:03;;;;;;;;;;;-0.30;99.90;;;;;;5116322;28;19969;-86
2022/01/18 06:08:14;;;;;;;;;;;-0.20;99.90;;;;;;5116848;28;19949;-88
2022/01/18 06:10:42;;;;;;;;;;;-0.20;99.90;;;;;;5116354;28;19953;-87
2022/01/18 06:13:09;;;;;;;;;;;-1.20;99.90;;;;;;5116472;28;19923;-87
2022/01/18 06:15:36;;;;;;;;;;;-0.30;99.90;;;;;;5116801;28;19994;-87
2022/01/18 06:18:03;;;;;;;;;;;-0.30;99.90;;;;;;5117199;28;19930;-87
2022/01/18 06:20:30;;;;;;;;;;;-0.40;99.90;;;;;;5117956;28;19923;-85
2022/01/18 06:22:57;;;;;;;;;;;-0.40;99.90;;;;;;5124534;28;19924;-85
2022/01/18 06:25:24;;;;;;;;;;;-0.40;99.90;;;;;;5124966;28;19932;-85
2022/01/18 06:27:53;;;;;;;;;;;-0.80;99.90;;;;;;5125703;28;19953;-85
2022/01/18 06:30:20;;;;;;;;;;;-0.50;99.90;;;;;;5121380;28;19930;-88
2022/01/18 06:32:47;;;;;;;;;;;-0.60;99.90;;;;;;5116763;28;20292;-87
2022/01/18 06:35:14;;;;;;;;;;;-0.50;99.90;;;;;;5116749;28;19924;-88
2022/01/18 06:37:42;;;;;;;;;;;-0.40;99.90;;;;;;5116592;28;19924;-87
2022/01/18 06:40:10;;;;;;;;;;;-0.50;99.90;;;;;;5117022;28;19924;-86
2022/01/18 06:42:37;;;;;;;;;;;-0.50;99.90;;;;;;5111648;28;19955;-87
2022/01/18 06:45:08;;;;;;;;;;;-0.50;99.90;;;;;;5116510;28;20011;-87
2022/01/18 06:47:35;;;;;;;;;;;-0.40;99.90;;;;;;5116254;28;20440;-87
2022/01/18 06:50:02;;;;;;;;;;;-0.40;99.90;;;;;;5116400;28;19924;-87
2022/01/18 06:52:29;;;;;;;;;;;-0.30;99.90;;;;;;5115837;28;19924;-87
2022/01/18 06:54:55;;;;;;;;;;;-0.30;99.90;;;;;;5115883;28;19973;-86
2022/01/18 06:57:23;;;;;;;;;;;-0.20;99.90;;;;;;5115387;28;19923;-87
2022/01/18 06:59:49;;;;;;;;;;;-0.30;99.90;;;;;;5115626;28;19969;-88
2022/01/18 07:02:18;;;;;;;;;;;-0.40;99.90;;;;;;5114953;28;19984;-87
2022/01/18 07:04:44;;;;;;;;;;;-0.70;99.90;;;;;;5115800;28;19969;-87
2022/01/18 07:07:11;;;;;;;;;;;0.10;99.90;;;;;;5115614;28;19974;-86
2022/01/18 07:09:38;;;;;;;;;;;-0.40;99.90;;;;;;5115822;28;19971;-87
2022/01/18 07:12:09;;;;;;;;;;;-0.40;99.90;;;;;;5116123;28;19924;-86
2022/01/18 07:14:36;;;;;;;;;;;-0.50;99.90;;;;;;5116545;28;20277;-87
2022/01/18 07:17:03;;;;;;;;;;;-0.40;99.90;;;;;;5115119;28;20009;-87
2022/01/18 07:19:32;;;;;;;;;;;-0.50;99.90;;;;;;5116094;28;19997;-85
2022/01/18 07:21:59;;;;;;;;;;;-0.50;99.90;;;;;;5115421;28;19935;-87
2022/01/18 07:24:41;;;;;;;;;;;0.00;99.90;;;;;;5115334;28;20337;-86
2022/01/18 07:27:08;;;;;;;;;;;-0.30;99.90;;;;;;5115407;28;19934;-86
2022/01/18 07:29:35;;;;;;;;;;;-0.30;99.90;;;;;;5115620;28;19969;-86
2022/01/18 07:32:02;;;;;;;;;;;-0.30;99.90;;;;;;5114470;28;19970;-86
2022/01/18 07:34:31;;;;;;;;;;;-0.40;99.90;;;;;;5097295;28;19924;-87
2022/01/18 07:36:59;;;;;;;;;;;-0.40;99.90;;;;;;5116057;28;19957;-87
2022/01/18 07:39:26;;;;;;;;;;;-0.30;99.90;;;;;;5114657;28;19924;-87
2022/01/18 07:41:53;;;;;;;;;;;0.30;99.90;;;;;;5115251;28;20456;-86
2022/01/18 07:44:20;;;;;;;;;;;-0.20;99.90;;;;;;5115770;28;19923;-86
2022/01/18 07:46:47;;;;;;;;;;;-1.60;99.90;;;;;;5115721;28;19936;-87
2022/01/18 07:49:13;;;;;;;;;;;-0.40;99.90;;;;;;5115451;28;20438;-84
2022/01/18 07:51:40;;;;;;;;;;;1.10;99.90;;;;;;5117943;28;19931;-88
2022/01/18 07:54:10;;;;;;;;;;;-0.30;99.90;;;;;;5115706;28;19924;-86
2022/01/18 07:56:40;;;;;;;;;;;-0.30;99.90;;;;;;5117232;28;20391;-87
2022/01/18 07:59:07;;;;;;;;;;;-0.30;99.90;;;;;;5113353;28;19924;-87
2022/01/18 08:01:33;;;;;;;;;;;-0.20;99.90;;;;;;5114567;28;19924;-86
2022/01/18 08:04:00;;;;;;;;;;;-0.20;99.90;;;;;;5114956;28;20470;-85
2022/01/18 08:06:27;;;;;;;;;;;-0.20;99.90;;;;;;5115718;28;20243;-87
2022/01/18 08:08:54;;;;;;;;;;;-0.30;99.90;;;;;;5114481;28;19923;-88
2022/01/18 08:11:22;;;;;;;;;;;0.50;99.90;;;;;;5116482;28;19946;-86
2022/01/18 08:13:50;;;;;;;;;;;-0.10;99.90;;;;;;5115336;28;19973;-86
2022/01/18 08:16:45;;;;;;;;;;;-1.20;99.90;;;;;;5116136;28;19924;-87
2022/01/18 08:19:11;;;;;;;;;;;0.10;99.90;;;;;;5116733;28;19923;-87
2022/01/18 08:21:37;;;;;;;;;;;0.10;99.90;;;;;;5115610;28;20007;-86
2022/01/18 08:24:04;;;;;;;;;;;0.10;99.90;;;;;;5114870;28;19924;-87
2022/01/18 08:26:33;;;;;;;;;;;0.30;99.90;;;;;;5116639;28;20035;-87
2022/01/18 08:28:59;;;;;;;;;;;-0.10;99.90;;;;;;5114853;28;19927;-85
2022/01/18 08:31:26;;;;;;;;;;;0.30;99.90;;;;;;5116286;28;19923;-85
2022/01/18 08:33:53;;;;;;;;;;;0.30;99.90;;;;;;5119958;28;19931;-86
2022/01/18 08:36:20;;;;;;;;;;;0.40;99.90;;;;;;5123422;28;19936;-86
2022/01/18 08:38:47;;;;;;;;;;;2.20;99.90;;;;;;5123244;28;20270;-87
2022/01/18 08:41:14;;;;;;;;;;;1.00;99.90;;;;;;5120554;28;19924;-87
2022/01/18 08:43:42;;;;;;;;;;;1.00;99.90;;;;;;5118938;28;19975;-89
2022/01/18 08:46:12;;;;;;;;;;;0.40;99.90;;;;;;5120718;28;19928;-87
2022/01/18 08:48:41;;;;;;;;;;;1.00;99.90;;;;;;5090104;28;20299;-86
2022/01/18 08:51:08;;;;;;;;;;;0.50;99.90;;;;;;5074015;28;20844;-85
2022/01/18 08:53:35;;;;;;;;;;;0.50;99.90;;;;;;5097402;28;19923;-88
2022/01/18 08:56:02;;;;;;;;;;;1.00;99.90;;;;;;5110628;28;19928;-85
2022/01/18 08:58:31;;;;;;;;;;;0.70;99.90;;;;;;5076490;27;20016;-85
2022/01/18 09:01:00;;;;;;;;;;;0.90;99.90;;;;;;5087821;28;19924;-86
2022/01/18 09:03:27;;;;;;;;;;;1.80;99.90;;;;;;5101830;27;19932;-84
2022/01/18 09:05:56;;;;;;;;;;;1.00;99.90;;;;;;5098559;28;19932;-86
2022/01/18 09:08:23;;;;;;;;;;;1.10;99.90;;;;;;5101831;28;20888;-87
2022/01/18 09:10:52;;;;;;;;;;;1.10;99.90;;;;;;5111827;28;19928;-86
2022/01/18 09:13:21;;;;;;;;;;;1.10;99.90;;;;;;5107353;28;19924;-88
2022/01/18 09:15:48;;;;;;;;;;;1.50;99.90;;;;;;5104999;28;19928;-86
2022/01/18 09:18:17;;;;;;;;;;;1.40;99.90;;;;;;5105468;27;19932;-85
2022/01/18 09:20:44;;;;;;;;;;;1.50;99.90;;;;;;5103099;27;20378;-87
2022/01/18 09:23:11;;;;;;;;;;;1.60;99.90;;;;;;5106009;28;19924;-88
2022/01/18 09:25:38;;;;;;;;;;;1.50;99.90;;;;;;5106620;28;20348;-91
2022/01/18 09:28:05;;;;;;;;;;;1.50;99.90;;;;;;5104647;28;19923;-84
2022/01/18 09:30:33;;;;;;;;;;;1.60;99.90;;;;;;5103444;28;19947;-86
2022/01/18 09:33:01;;;;;;;;;;;2.10;99.90;;;;;;5105417;28;19928;-86
2022/01/18 09:35:29;;;;;;;;;;;1.60;99.90;;;;;;5104175;28;19981;-86
2022/01/18 09:38:00;;;;;;;;;;;2.40;99.90;;;;;;5108103;28;19924;-86
2022/01/18 09:40:27;;;;;;;;;;;1.70;99.90;;;;;;5109596;28;19947;-87
2022/01/18 09:42:57;;;;;;;;;;;1.90;99.90;;;;;;5101695;27;19924;-86
2022/01/18 09:45:27;;;;;;;;;;;2.00;99.90;;;;;;5098086;28;19967;-87
2022/01/18 09:47:55;;;;;;;;;;;2.10;99.90;;;;;;5100952;28;19924;-86
2022/01/18 09:50:23;;;;;;;;;;;1.90;99.90;;;;;;5107149;28;19923;-88
2022/01/18 09:52:54;;;;;;;;;;;0.90;99.90;;;;;;5103356;27;19981;-87
2022/01/18 09:55:22;;;;;;;;;;;3.90;99.90;;;;;;5095843;28;19932;-87
2022/01/18 09:57:50;;;;;;;;;;;3.80;99.90;;;;;;5100109;28;19976;-86
2022/01/18 10:00:17;;;;;;;;;;;2.10;99.90;;;;;;5091875;27;20012;-87
2022/01/18 10:02:44;;;;;;;;;;;2.10;99.90;;;;;;5100391;28;19935;-86
2022/01/18 10:05:17;;;;;;;;;;;2.10;99.90;;;;;;5088475;28;19932;-86
2022/01/18 10:07:45;;;;;;;;;;;2.20;99.90;;;;;;5098775;27;19931;-85
2022/01/18 10:10:13;;;;;;;;;;;2.40;99.90;;;;;;5100666;28;20289;-88
2022/01/18 10:12:40;;;;;;;;;;;2.30;99.90;;;;;;5093709;28;20462;-87
2022/01/18 10:15:07;;;;;;;;;;;2.40;99.90;;;;;;5097910;28;19940;-85
2022/01/18 10:17:35;;;;;;;;;;;2.60;99.90;;;;;;5102073;27;19992;-85
2022/01/18 10:20:04;;;;;;;;;;;2.70;99.90;;;;;;5098754;27;19962;-85
2022/01/18 10:22:39;;;;;;;;;;;3.00;99.90;;;;;;5100320;28;19924;-85
2022/01/18 10:25:15;;;;;;;;;;;2.90;99.90;;;;;;5095212;27;20029;-85
2022/01/18 10:27:42;;;;;;;;;;;3.00;99.90;;;;;;5098649;27;19928;-87
2022/01/18 10:30:15;;;;;;;;;;;2.90;99.90;;;;;;5096766;27;19928;-87
2022/01/18 10:32:43;;;;;;;;;;;3.00;99.90;;;;;;5104850;27;19931;-86
2022/01/18 10:35:10;;;;;;;;;;;3.00;99.90;;;;;;5096204;28;20153;-86
2022/01/18 10:37:43;;;;;;;;;;;3.20;99.90;;;;;;5109016;27;19927;-87
2022/01/18 10:40:16;;;;;;;;;;;3.50;99.90;;;;;;5102291;27;19938;-87
2022/01/18 10:42:46;;;;;;;;;;;3.50;99.90;;;;;;5094953;28;19981;-85
2022/01/18 10:45:14;;;;;;;;;;;3.80;99.90;;;;;;5096606;27;19953;-86
2022/01/18 10:47:48;;;;;;;;;;;4.00;99.90;;;;;;5094028;28;19932;-86
2022/01/18 10:50:16;;;;;;;;;;;4.60;99.90;;;;;;5103065;28;19928;-86
2022/01/18 10:52:43;;;;;;;;;;;2.90;99.90;;;;;;5088191;27;19993;-86
2022/01/18 10:55:17;;;;;;;;;;;4.30;99.90;;;;;;5096169;27;19932;-85
2022/01/18 10:57:44;;;;;;;;;;;4.60;99.90;;;;;;5083259;27;19945;-86
2022/01/18 11:00:12;;;;;;;;;;;4.30;99.90;;;;;;5107005;27;19936;-85
2022/01/18 11:02:40;;;;;;;;;;;4.60;99.90;;;;;;5113939;27;19924;-86
2022/01/18 11:05:14;;;;;;;;;;;4.60;99.90;;;;;;5114092;27;20370;-88
2022/01/18 11:07:41;;;;;;;;;;;4.70;99.90;;;;;;5103403;28;19935;-86
2022/01/18 11:10:09;;;;;;;;;;;4.90;99.90;;;;;;5107654;28;20781;-87
2022/01/18 11:13:04;;;;;;;;;;;4.90;99.90;;;;;;5113619;27;20461;-87
2022/01/18 11:15:32;;;;;;;;;;;5.00;99.90;;;;;;5110183;27;19927;-86
2022/01/18 11:18:02;;;;;;;;;;;5.10;99.90;;;;;;5107626;27;19938;-86
2022/01/18 11:20:29;;;;;;;;;;;5.20;99.90;;;;;;5115428;27;19963;-86
2022/01/18 11:22:56;;;;;;;;;;;5.30;99.90;;;;;;5109792;28;19996;-86
2022/01/18 11:25:23;;;;;;;;;;;4.80;99.90;;;;;;5102977;28;19956;-87
2022/01/18 11:27:53;;;;;;;;;;;5.40;99.90;;;;;;5097877;27;19927;-86
2022/01/18 11:30:20;;;;;;;;;;;5.50;99.90;;;;;;5107305;27;19932;-86
2022/01/18 11:32:47;;;;;;;;;;;5.10;99.90;;;;;;5112899;27;20719;-87
2022/01/18 11:35:17;;;;;;;;;;;5.50;99.90;;;;;;5113514;28;20004;-87
2022/01/18 11:37:57;;;;;;;;;;;5.60;99.90;;;;;;5105664;27;19924;-87
2022/01/18 11:40:25;;;;;;;;;;;5.60;99.90;;;;;;5108838;27;20487;-88
2022/01/18 11:42:54;;;;;;;;;;;5.60;99.90;;;;;;5107480;27;20326;-86
2022/01/18 11:45:31;;;;;;;;;;;5.50;99.90;;;;;;5107597;28;20014;-89
2022/01/18 11:48:02;;;;;;;;;;;5.60;99.90;;;;;;5105136;28;19928;-87
2022/01/18 11:50:30;;;;;;;;;;;5.60;99.90;;;;;;5110980;28;19924;-86
2022/01/18 11:53:24;;;;;;;;;;;5.60;99.90;;;;;;5114098;27;20299;-87
2022/01/18 11:55:51;;;;;;;;;;;5.60;99.90;;;;;;5106524;28;20364;-86
2022/01/18 11:58:21;;;;;;;;;;;5.50;99.90;;;;;;5105224;28;20401;-88
2022/01/18 12:00:52;;;;;;;;;;;5.50;99.90;;;;;;5106356;28;20003;-89
2022/01/18 12:03:20;;;;;;;;;;;5.60;99.90;;;;;;5102625;28;19924;-87
2022/01/18 12:05:47;;;;;;;;;;;6.60;99.90;;;;;;5105184;28;19924;-87
2022/01/18 12:08:29;;;;;;;;;;;5.50;99.90;;;;;;5103706;28;19931;-87
2022/01/18 12:10:55;;;;;;;;;;;5.60;99.90;;;;;;5100456;28;19931;-87
2022/01/18 12:13:40;;;;;;;;;;;5.70;99.90;;;;;;5102622;28;19932;-88
2022/01/18 12:16:17;;;;;;;;;;;5.80;99.90;;;;;;5105844;28;19924;-86
2022/01/18 12:18:54;;;;;;;;;;;5.90;99.90;;;;;;5108728;28;19924;-88
2022/01/18 12:21:26;;;;;;;;;;;5.80;99.90;;;;;;5114974;27;20014;-86
2022/01/18 12:23:55;;;;;;;;;;;5.90;99.90;;;;;;5121320;27;19924;-88
2022/01/18 12:26:32;;;;;;;;;;;6.00;99.90;;;;;;5112312;27;19931;-88
2022/01/18 12:34:52;;;;;;;;;;;6.40;99.90;;;;;;5105066;28;19924;-86
2022/01/18 12:37:39;;;;;;;;;;;6.60;99.90;;;;;;5111706;27;20054;-86
2022/01/18 12:40:11;;;;;;;;;;;6.30;99.90;;;;;;5116509;27;19923;-87
2022/01/18 12:45:29;;;;;;;;;;;5.80;99.90;;;;;;5118436;27;19926;-87
2022/01/18 12:48:00;;;;;;;;;;;6.60;99.90;;;;;;5114049;27;19927;-88
2022/01/18 12:50:28;;;;;;;;;;;6.60;99.90;;;;;;5118944;27;20371;-86
2022/01/18 12:52:56;;;;;;;;;;;6.60;99.90;;;;;;5118037;27;20047;-86
2022/01/18 12:55:31;;;;;;;;;;;6.80;99.90;;;;;;5106905;28;19969;-87
2022/01/18 12:57:58;;;;;;;;;;;6.70;99.90;;;;;;5110855;28;20451;-87
2022/01/18 13:00:25;;;;;;;;;;;6.70;99.90;;;;;;5117950;28;20457;-87
2022/01/18 13:02:52;;;;;;;;;;;7.30;99.90;;;;;;5108120;28;19924;-88
2022/01/18 13:05:21;;;;;;;;;;;6.80;99.90;;;;;;5110904;28;19928;-87
2022/01/18 13:07:54;;;;;;;;;;;6.70;99.90;;;;;;5115970;27;19924;-89
2022/01/18 13:10:33;;;;;;;;;;;6.70;99.90;;;;;;5117566;27;19928;-87
2022/01/18 13:13:03;;;;;;;;;;;6.60;99.90;;;;;;5110875;28;20367;-87
2022/01/18 13:15:40;;;;;;;;;;;7.20;99.90;;;;;;5095457;28;20017;-85
2022/01/18 13:23:55;;;;;;;;;;;6.70;99.90;;;;;;5106124;28;20001;-86
2022/01/18 13:26:29;;;;;;;;;;;6.70;99.90;;;;;;5108589;28;19927;-87
2022/01/18 13:28:56;;;;;;;;;;;6.70;99.90;;;;;;5113287;28;19923;-88
2022/01/18 13:31:24;;;;;;;;;;;6.70;99.90;;;;;;5114139;28;19930;-86
2022/01/18 13:33:51;;;;;;;;;;;6.90;99.90;;;;;;5103540;28;19924;-87
2022/01/18 13:36:21;;;;;;;;;;;6.90;99.90;;;;;;5097057;28;19935;-86
2022/01/18 13:38:49;;;;;;;;;;;7.00;99.90;;;;;;5110894;28;19924;-87
2022/01/18 13:41:16;;;;;;;;;;;7.10;99.90;;;;;;5114113;28;19930;-86
2022/01/18 13:43:43;;;;;;;;;;;6.90;99.90;;;;;;5117697;28;19946;-87
2022/01/18 13:46:10;;;;;;;;;;;6.80;99.90;;;;;;5119425;28;19974;-86
2022/01/18 13:48:37;;;;;;;;;;;6.80;99.90;;;;;;5115981;28;19969;-87
2022/01/18 13:51:14;;;;;;;;;;;6.70;99.90;;;;;;5115433;28;19927;-87
2022/01/18 13:53:44;;;;;;;;;;;6.70;99.90;;;;;;5096267;28;19924;-85
2022/01/18 13:56:12;;;;;;;;;;;6.50;99.90;;;;;;5100230;28;19994;-86
2022/01/18 13:58:40;;;;;;;;;;;6.80;99.90;;;;;;5110641;28;19928;-87
2022/01/18 14:01:09;;;;;;;;;;;6.70;99.90;;;;;;5114471;28;20623;-86
2022/01/18 14:03:37;;;;;;;;;;;6.80;99.90;;;;;;5114786;28;19923;-86
2022/01/18 14:06:04;;;;;;;;;;;6.60;99.90;;;;;;5116584;28;20003;-86
2022/01/18 14:08:39;;;;;;;;;;;6.60;99.90;;;;;;5119560;28;19977;-86
2022/01/18 14:11:10;;;;;;;;;;;6.50;99.90;;;;;;5117525;28;19930;-89
2022/01/18 14:13:37;;;;;;;;;;;6.90;99.90;;;;;;5111691;28;19984;-88
2022/01/18 14:16:19;;;;;;;;;;;6.60;99.90;;;;;;5118815;28;19924;-86
2022/01/18 14:18:52;;;;;;;;;;;6.70;99.90;;;;;;5117424;28;19924;-88
2022/01/18 14:21:26;;;;;;;;;;;6.80;99.90;;;;;;5118843;28;19960;-88
2022/01/18 14:24:06;;;;;;;;;;;5.70;99.90;;;;;;5106895;28;19924;-88
2022/01/18 14:26:37;;;;;;;;;;;6.60;99.90;;;;;;5104111;28;20278;-88
2022/01/18 14:29:05;;;;;;;;;;;8.00;99.90;;;;;;5112285;28;19924;-88
2022/01/18 14:31:31;;;;;;;;;;;6.40;99.90;;;;;;5110209;27;19928;-89
2022/01/18 14:33:58;;;;;;;;;;;6.40;99.90;;;;;;5112862;28;19924;-88
2022/01/18 14:36:28;;;;;;;;;;;6.50;99.90;;;;;;5086803;28;19936;-88
2022/01/18 14:39:05;;;;;;;;;;;6.10;99.90;;;;;;5106197;27;19935;-88
2022/01/18 14:41:31;;;;;;;;;;;6.50;99.90;;;;;;5100052;28;19928;-88
2022/01/18 14:44:09;;;;;;;;;;;6.60;99.90;;;;;;5108123;28;19923;-88
2022/01/18 14:46:57;;;;;;;;;;;6.70;99.90;;;;;;5105992;28;20333;-88
2022/01/18 14:49:24;;;;;;;;;;;6.10;99.90;;;;;;5104827;27;19931;-87
2022/01/18 14:51:51;;;;;;;;;;;6.60;99.90;;;;;;5100387;28;20007;-89
2022/01/18 14:54:18;;;;;;;;;;;6.60;99.90;;;;;;5110170;28;19939;-91
2022/01/18 14:56:45;;;;;;;;;;;6.80;99.90;;;;;;5112316;28;20410;-86
2022/01/18 14:59:13;;;;;;;;;;;6.60;99.90;;;;;;5105747;28;20414;-89
2022/01/18 15:01:41;;;;;;;;;;;6.50;99.90;;;;;;5099688;28;20393;-86
2022/01/18 15:04:11;;;;;;;;;;;6.50;99.90;;;;;;5112279;28;20262;-89
2022/01/18 15:06:42;;;;;;;;;;;6.40;99.90;;;;;;5109438;28;19927;-87
2022/01/18 15:09:09;;;;;;;;;;;6.30;99.90;;;;;;5105708;28;20003;-87
2022/01/18 15:11:36;;;;;;;;;;;6.60;99.90;;;;;;5106257;28;20304;-90
2022/01/18 15:14:04;;;;;;;;;;;6.50;99.90;;;;;;5110086;28;19942;-90
2022/01/18 15:16:34;;;;;;;;;;;6.50;99.90;;;;;;5100663;28;19963;-88
2022/01/18 15:19:01;;;;;;;;;;;6.80;99.90;;;;;;5108034;28;19936;-89
2022/01/18 15:21:28;;;;;;;;;;;6.30;99.90;;;;;;5105810;28;20339;-88
2022/01/18 15:23:54;;;;;;;;;;;8.50;99.90;;;;;;5099663;27;19924;-88
2022/01/18 15:26:21;;;;;;;;;;;6.10;99.90;;;;;;5100256;27;19969;-88
2022/01/18 15:28:50;;;;;;;;;;;6.10;99.90;;;;;;5098490;28;19985;-88
2022/01/18 15:31:18;;;;;;;;;;;5.90;99.90;;;;;;5101269;28;19976;-88